Robert E. Mcallister — WDC8669 — position and weather

sailwx.info

Track history (hours):
 
Tides and Currents Weather Stations Pressure Air Temp Water Temp Dewpoint Dewpoint Depression Visibility Wind Speed Wind Dir Waves Ship Positions

Robert E. Mcallister

Owner: McAllister Towing & Transportation, Staten Island, NY. More information available from US FCC via Universal Licensing System and Coast Guard Vessel Documentation Center.

Last reported at 2014-Oct-02 10:33 UTC. Time now 2014-Oct-02 10:42 UTC.
Position N 40°39' W 074°09'.

Length 34 m; draft 4.3 m.

Type: Tug. MMSI: 367091120.

Date/timePositionNaut miles runAvg speedWind from/ knotsBaromVisibWave heightAir tempDewpointWater temp
2014-Oct-02 10:33N 40°39' W 074°09'1 0.7
2014-Oct-02 09:34N 40°38' W 074°10'0 0.0
2014-Oct-02 08:34N 40°38' W 074°10'0 0.0
2014-Oct-02 07:34N 40°38' W 074°10'0 0.0
2014-Oct-02 06:33N 40°38' W 074°10'0 0.0
2014-Oct-02 05:34N 40°38' W 074°10'1 1.3
2014-Oct-02 04:33N 40°40' W 074°09'1 1.2
2014-Oct-02 03:33N 40°38' W 074°09'0 0.4
2014-Oct-02 02:29N 40°38' W 074°10'0 0.0
2014-Oct-02 01:32N 40°38' W 074°10'0 0.0
2014-Oct-02 00:33N 40°38' W 074°10'0 0.0
2014-Oct-01 23:33N 40°38' W 074°10'0 0.0
2014-Oct-01 22:34N 40°38' W 074°10'0 0.0
2014-Oct-01 21:34N 40°38' W 074°10'6 4.3
2014-Oct-01 20:08N 40°33' W 074°14'0 0.0
2014-Oct-01 19:13N 40°33' W 074°14'0 0.0
2014-Oct-01 18:25N 40°33' W 074°14'0 0.0
2014-Oct-01 17:11N 40°33' W 074°14'6 3.8
2014-Oct-01 15:33N 40°38' W 074°10'1 0.7
2014-Oct-01 14:33N 40°39' W 074°09'2 1.7
2014-Oct-01 13:33N 40°41' W 074°08'3 3.2
2014-Oct-01 12:33N 40°39' W 074°04'4 3.6
2014-Oct-01 11:33N 40°41' W 074°08'2 1.8
2014-Oct-01 10:33N 40°40' W 074°09'5 4.8
2014-Oct-01 09:33N 40°37' W 074°03'5 5.2
2014-Oct-01 08:34N 40°38' W 074°10'0 0.0
2014-Oct-01 07:34N 40°38' W 074°10'0 0.0
2014-Oct-01 06:34N 40°38' W 074°10'0 0.0
2014-Oct-01 05:33N 40°38' W 074°10'2 2.0
2014-Oct-01 04:33N 40°40' W 074°08'0 0.4
2014-Oct-01 03:33N 40°40' W 074°08'0 0.0
2014-Oct-01 02:33N 40°40' W 074°08'0 0.0
2014-Oct-01 01:33N 40°40' W 074°08'0 0.4
2014-Oct-01 00:33N 40°40' W 074°08'0 0.1
2014-Sep-30 23:33N 40°40' W 074°09'1 0.6
2014-Sep-30 22:23N 40°39' W 074°09'2 2.8
2014-Sep-30 21:31N 40°42' W 074°08'3 3.6
2014-Sep-30 20:33N 40°38' W 074°10'0 0.0
2014-Sep-30 19:33N 40°38' W 074°10'0 0.0
2014-Sep-30 18:32N 40°38' W 074°10'0 0.0
2014-Sep-30 17:32N 40°38' W 074°10'4 3.7
2014-Sep-30 16:33N 40°39' W 074°05'1 1.2
2014-Sep-30 15:33N 40°40' W 074°05'1 0.7
2014-Sep-30 14:33N 40°40' W 074°04'4 3.7
2014-Sep-30 13:33N 40°40' W 074°09'0 0.0
2014-Sep-30 11:31N 40°40' W 074°09'1 1.2
2014-Sep-30 10:33N 40°41' W 074°09'2 2.3
2014-Sep-30 09:34N 40°39' W 074°08'4 3.8
2014-Sep-30 08:33N 40°38' W 074°03'5 5.2
2014-Sep-30 07:33N 40°38' W 074°10'0 0.0
2014-Sep-30 06:33N 40°38' W 074°10'0 0.0
2014-Sep-30 05:33N 40°38' W 074°10'0 0.0
2014-Sep-30 04:34N 40°38' W 074°10'2 2.4
2014-Sep-30 03:33N 40°41' W 074°09'0 0.3
2014-Sep-30 02:33N 40°41' W 074°09'0 0.0
2014-Sep-30 01:34N 40°41' W 074°09'0 0.0
2014-Sep-30 00:32N 40°41' W 074°09'0 0.0
2014-Sep-29 23:33N 40°41' W 074°09'3 2.9
2014-Sep-29 22:33N 40°39' W 074°06'2 1.7
2014-Sep-29 21:33N 40°39' W 074°04'4 3.7
2014-Sep-29 20:33N 40°38' W 074°09'1 0.6
2014-Sep-29 19:33N 40°39' W 074°10'0 0.1
2014-Sep-29 18:33N 40°38' W 074°10'0 0.0
2014-Sep-29 17:33N 40°38' W 074°10'0 0.0
2014-Sep-29 16:34N 40°38' W 074°10'3 2.6
2014-Sep-29 15:33N 40°41' W 074°09'1 1.2
2014-Sep-29 14:29N 40°40' W 074°09'0 0.0
2014-Sep-29 13:28N 40°40' W 074°09'0 0.0
2014-Sep-29 12:33N 40°40' W 074°09'0 0.0
2014-Sep-29 11:33N 40°40' W 074°09'1 1.1
2014-Sep-29 10:33N 40°41' W 074°09'1 0.8
2014-Sep-29 09:33N 40°40' W 074°09'4 3.6
2014-Sep-29 08:33N 40°39' W 074°04'1 1.1
2014-Sep-29 07:34N 40°38' W 074°04'4 3.9
2014-Sep-29 06:33N 40°39' W 074°09'0 0.1
2014-Sep-29 05:32N 40°39' W 074°09'1 0.9
2014-Sep-29 04:33N 40°38' W 074°10'4 3.7
2014-Sep-29 03:33N 40°39' W 074°05'4 3.7
2014-Sep-29 02:33N 40°38' W 074°10'0 0.0
2014-Sep-29 01:33N 40°38' W 074°10'0 0.0
2014-Sep-29 00:34N 40°38' W 074°10'0 0.0
2014-Sep-28 23:33N 40°38' W 074°10'1 1.5
2014-Sep-28 22:33N 40°40' W 074°09'0 0.1
2014-Sep-28 21:33N 40°40' W 074°09'3 2.7
2014-Sep-28 20:34N 40°39' W 074°05'4 3.6
2014-Sep-28 19:33N 40°38' W 074°10'0 0.0
2014-Sep-28 18:34N 40°38' W 074°10'0 0.0
2014-Sep-28 17:33N 40°38' W 074°10'0 0.0
2014-Sep-28 16:33N 40°38' W 074°10'0 0.0
2014-Sep-28 15:33N 40°38' W 074°10'4 4.1
2014-Sep-28 14:33N 40°40' W 074°05'2 1.8
2014-Sep-28 13:33N 40°39' W 074°03'2 1.8
2014-Sep-28 12:33N 40°37' W 074°03'1 0.6
2014-Sep-28 11:33N 40°38' W 074°03'3 3.0
2014-Sep-28 10:33N 40°40' W 074°05'2 1.7
2014-Sep-28 09:33N 40°39' W 074°03'6 6.2
2014-Sep-28 08:33N 40°38' W 074°12'1 1.3
2014-Sep-28 07:33N 40°38' W 074°10'0 0.0
2014-Sep-28 06:33N 40°38' W 074°10'0 0.0
2014-Sep-28 05:33N 40°38' W 074°10'0 0.0
2014-Sep-28 04:33N 40°38' W 074°10'0 0.0
2014-Sep-28 03:33N 40°38' W 074°10'0 0.0
2014-Sep-28 02:33N 40°38' W 074°10'0 0.0
2014-Sep-28 01:32N 40°38' W 074°10'1 1.3
2014-Sep-28 00:33N 40°40' W 074°09'1 1.3
2014-Sep-27 23:33N 40°38' W 074°10'0 0.0
2014-Sep-27 22:33N 40°38' W 074°10'0 0.0
2014-Sep-27 21:33N 40°38' W 074°10'0 0.0
2014-Sep-27 20:30N 40°38' W 074°10'0 0.0
2014-Sep-27 19:33N 40°38' W 074°10'0 0.0
2014-Sep-27 18:21N 40°38' W 074°10'0 0.0
2014-Sep-27 17:29N 40°38' W 074°10'4 1.9
2014-Sep-27 15:31N 40°39' W 074°05'4 3.9
2014-Sep-27 14:33N 40°38' W 074°10'5 3.6
2014-Sep-27 13:15N 40°34' W 074°13'1 0.6
2014-Sep-27 11:21N 40°35' W 074°12'4 4.3
2014-Sep-27 10:29N 40°38' W 074°10'2 2.5
2014-Sep-27 09:33N 40°41' W 074°08'1 1.1
2014-Sep-27 08:33N 40°39' W 074°09'1 1.3
2014-Sep-27 07:33N 40°38' W 074°10'0 0.0
2014-Sep-27 06:33N 40°38' W 074°10'0 0.0
2014-Sep-27 05:33N 40°38' W 074°10'0 0.0
2014-Sep-27 04:33N 40°38' W 074°10'0 0.0
2014-Sep-27 03:33N 40°38' W 074°10'0 0.0
2014-Sep-27 02:33N 40°38' W 074°10'0 0.0
2014-Sep-27 01:33N 40°38' W 074°10'0 0.0
2014-Sep-27 00:33N 40°38' W 074°10'0 0.0
2014-Sep-26 23:33N 40°38' W 074°10'0 0.0
2014-Sep-26 22:33N 40°38' W 074°10'2 2.2
2014-Sep-26 21:33N 40°40' W 074°08'4 3.8
2014-Sep-26 20:33N 40°39' W 074°04'4 4.4
2014-Sep-26 19:33N 40°38' W 074°10'0 0.1
2014-Sep-26 18:33N 40°38' W 074°10'0 0.0
2014-Sep-26 17:33N 40°38' W 074°10'1 1.3
2014-Sep-26 16:33N 40°38' W 074°12'0 0.0
2014-Sep-26 15:31N 40°38' W 074°12'0 0.0
2014-Sep-26 14:26N 40°38' W 074°12'0 0.0
2014-Sep-26 13:22N 40°38' W 074°12'1 1.6
2014-Sep-26 12:33N 40°38' W 074°10'0 0.0
2014-Sep-26 11:33N 40°38' W 074°10'4 4.1
2014-Sep-26 10:33N 40°39' W 074°05'6 5.6
2014-Sep-26 09:33N 40°42' W 073°59'2 2.0
2014-Sep-26 08:33N 40°41' W 074°01'8 7.6
2014-Sep-26 07:33N 40°38' W 074°10'0 0.0
2014-Sep-26 06:33N 40°38' W 074°10'0 0.0
2014-Sep-26 05:33N 40°38' W 074°10'0 0.0
2014-Sep-26 04:32N 40°38' W 074°10'0 0.0
2014-Sep-26 03:33N 40°38' W 074°10'0 0.0
2014-Sep-26 02:33N 40°38' W 074°10'0 0.0
2014-Sep-26 01:33N 40°38' W 074°10'0 0.0
2014-Sep-26 00:33N 40°38' W 074°10'0 0.0
2014-Sep-25 23:29N 40°38' W 074°10'0 0.0
2014-Sep-25 21:22N 40°38' W 074°10'1 0.5
2014-Sep-25 19:32N 40°39' W 074°09'1 0.8
2014-Sep-25 18:20N 40°38' W 074°10'0 0.0
2014-Sep-25 15:18N 40°38' W 074°10'1 1.0
2014-Sep-25 14:31N 40°39' W 074°09'1 1.0
2014-Sep-25 13:25N 40°39' W 074°07'2 2.2
2014-Sep-25 12:33N 40°38' W 074°10'0 0.0
2014-Sep-25 11:33N 40°38' W 074°10'1 1.2
2014-Sep-25 10:33N 40°38' W 074°11'2 1.6
2014-Sep-25 09:22N 40°39' W 074°09'5 5.7
2014-Sep-25 08:33N 40°37' W 074°03'5 5.1
2014-Sep-25 07:33N 40°38' W 074°10'0 0.2
2014-Sep-25 06:33N 40°38' W 074°10'2 2.0
2014-Sep-25 05:33N 40°39' W 074°07'3 2.6
2014-Sep-25 04:33N 40°41' W 074°09'2 2.1
2014-Sep-25 03:33N 40°39' W 074°09'1 1.0
2014-Sep-25 02:33N 40°40' W 074°09'2 1.6
2014-Sep-25 01:34N 40°38' W 074°10'0 0.0
2014-Sep-25 00:34N 40°38' W 074°10'0 0.0
2014-Sep-24 23:34N 40°38' W 074°10'0 0.0
2014-Sep-24 22:33N 40°38' W 074°10'0 0.0
2014-Sep-24 21:34N 40°38' W 074°10'0 0.0
2014-Sep-24 20:33N 40°38' W 074°10'0 0.0
2014-Sep-24 19:33N 40°38' W 074°10'0 0.0
2014-Sep-24 18:33N 40°38' W 074°10'0 0.0
2014-Sep-24 17:33N 40°38' W 074°10'5 3.2
2014-Sep-24 16:08N 40°40' W 074°04'5 8.7
2014-Sep-24 15:33N 40°42' W 073°58'0 0.1
2014-Sep-24 14:33N 40°42' W 073°58'3 3.0
2014-Sep-24 13:33N 40°41' W 074°02'2 2.2
2014-Sep-24 12:33N 40°40' W 074°04'0 0.3
2014-Sep-24 11:33N 40°40' W 074°04'0 0.0
2014-Sep-24 10:33N 40°40' W 074°04'1 0.5
2014-Sep-24 09:33N 40°40' W 074°05'3 3.4
2014-Sep-24 08:33N 40°37' W 074°03'1 1.1
2014-Sep-24 07:33N 40°38' W 074°04'5 4.5
2014-Sep-24 06:33N 40°41' W 074°09'2 2.5
2014-Sep-24 05:33N 40°38' W 074°10'0 0.0
2014-Sep-24 04:33N 40°38' W 074°10'0 0.0
2014-Sep-24 03:33N 40°38' W 074°10'0 0.0
2014-Sep-24 02:33N 40°38' W 074°10'0 0.0
2014-Sep-24 01:33N 40°38' W 074°10'2 1.7
2014-Sep-24 00:27N 40°38' W 074°12'4 3.8
2014-Sep-23 23:27N 40°39' W 074°07'0 0.1
2014-Sep-23 22:33N 40°39' W 074°07'2 1.8
2014-Sep-23 21:33N 40°38' W 074°10'0 0.0
2014-Sep-23 20:33N 40°38' W 074°10'2 2.5
2014-Sep-23 19:33N 40°41' W 074°09'0 0.3
2014-Sep-23 18:33N 40°41' W 074°08'3 2.8
2014-Sep-23 17:33N 40°38' W 074°10'0 0.0
2014-Sep-23 16:33N 40°38' W 074°10'0 0.0
2014-Sep-23 15:33N 40°38' W 074°10'0 0.0
2014-Sep-23 14:33N 40°38' W 074°10'0 0.0
2014-Sep-23 13:33N 40°38' W 074°10'0 0.0
2014-Sep-23 12:33N 40°38' W 074°10'0 0.0
2014-Sep-23 11:33N 40°38' W 074°10'0 0.0
2014-Sep-23 10:33N 40°38' W 074°10'2 2.1
2014-Sep-23 09:33N 40°40' W 074°08'0 0.1
2014-Sep-23 08:33N 40°40' W 074°08'2 2.0
2014-Sep-23 07:33N 40°38' W 074°10'0 0.0
2014-Sep-23 06:31N 40°38' W 074°10'3 2.5
2014-Sep-23 05:16N 40°39' W 074°06'3 3.8
2014-Sep-23 04:33N 40°37' W 074°03'5 5.5
2014-Sep-23 03:33N 40°38' W 074°10'0 0.0
2014-Sep-23 02:33N 40°38' W 074°10'0 0.0
2014-Sep-23 01:33N 40°38' W 074°10'0 0.0
2014-Sep-23 00:34N 40°38' W 074°10'0 0.0
2014-Sep-22 23:33N 40°38' W 074°10'0 0.0
2014-Sep-22 22:34N 40°38' W 074°10'0 0.0
2014-Sep-22 21:33N 40°38' W 074°10'4 2.0
2014-Sep-22 19:33N 40°39' W 074°05'4 4.0
2014-Sep-22 18:33N 40°38' W 074°10'3 1.2
2014-Sep-22 16:22N 40°41' W 074°09'1 1.3
2014-Sep-22 15:33N 40°40' W 074°08'4 4.1
2014-Sep-22 14:33N 40°38' W 074°03'5 4.9
2014-Sep-22 13:33N 40°38' W 074°10'0 0.0
2014-Sep-22 12:33N 40°38' W 074°10'1 0.9
2014-Sep-22 11:33N 40°39' W 074°09'1 0.9
2014-Sep-22 10:33N 40°40' W 074°09'  
Track history (hours):
 
Tides and Currents Weather Stations Pressure Air Temp Water Temp Dewpoint Dewpoint Depression Visibility Wind Speed Wind Dir Waves Ship Positions

Robert E. Mcallister

Owner: McAllister Towing & Transportation, Staten Island, NY. More information available from US FCC via Universal Licensing System and Coast Guard Vessel Documentation Center.

Last reported at 2014-Oct-02 10:33 UTC. Time now 2014-Oct-02 10:42 UTC.
Position N 40°39' W 074°09'.

Length 34 m; draft 4.3 m.

Type: Tug. MMSI: 367091120.

Date/timePositionNaut miles runAvg speedWind from/ knotsBaromVisibWave heightAir tempDewpointWater temp
2014-Oct-02 10:33N 40°39' W 074°09'1 0.7
2014-Oct-02 09:34N 40°38' W 074°10'0 0.0
2014-Oct-02 08:34N 40°38' W 074°10'0 0.0
2014-Oct-02 07:34N 40°38' W 074°10'0 0.0
2014-Oct-02 06:33N 40°38' W 074°10'0 0.0
2014-Oct-02 05:34N 40°38' W 074°10'1 1.3
2014-Oct-02 04:33N 40°40' W 074°09'1 1.2
2014-Oct-02 03:33N 40°38' W 074°09'0 0.4
2014-Oct-02 02:29N 40°38' W 074°10'0 0.0
2014-Oct-02 01:32N 40°38' W 074°10'0 0.0
2014-Oct-02 00:33N 40°38' W 074°10'0 0.0
2014-Oct-01 23:33N 40°38' W 074°10'0 0.0
2014-Oct-01 22:34N 40°38' W 074°10'0 0.0
2014-Oct-01 21:34N 40°38' W 074°10'6 4.3
2014-Oct-01 20:08N 40°33' W 074°14'0 0.0
2014-Oct-01 19:13N 40°33' W 074°14'0 0.0
2014-Oct-01 18:25N 40°33' W 074°14'0 0.0
2014-Oct-01 17:11N 40°33' W 074°14'6 3.8
2014-Oct-01 15:33N 40°38' W 074°10'1 0.7
2014-Oct-01 14:33N 40°39' W 074°09'2 1.7
2014-Oct-01 13:33N 40°41' W 074°08'3 3.2
2014-Oct-01 12:33N 40°39' W 074°04'4 3.6
2014-Oct-01 11:33N 40°41' W 074°08'2 1.8
2014-Oct-01 10:33N 40°40' W 074°09'5 4.8
2014-Oct-01 09:33N 40°37' W 074°03'5 5.2
2014-Oct-01 08:34N 40°38' W 074°10'0 0.0
2014-Oct-01 07:34N 40°38' W 074°10'0 0.0
2014-Oct-01 06:34N 40°38' W 074°10'0 0.0
2014-Oct-01 05:33N 40°38' W 074°10'2 2.0
2014-Oct-01 04:33N 40°40' W 074°08'0 0.4
2014-Oct-01 03:33N 40°40' W 074°08'0 0.0
2014-Oct-01 02:33N 40°40' W 074°08'0 0.0
2014-Oct-01 01:33N 40°40' W 074°08'0 0.4
2014-Oct-01 00:33N 40°40' W 074°08'0 0.1
2014-Sep-30 23:33N 40°40' W 074°09'1 0.6
2014-Sep-30 22:23N 40°39' W 074°09'2 2.8
2014-Sep-30 21:31N 40°42' W 074°08'3 3.6
2014-Sep-30 20:33N 40°38' W 074°10'0 0.0
2014-Sep-30 19:33N 40°38' W 074°10'0 0.0
2014-Sep-30 18:32N 40°38' W 074°10'0 0.0
2014-Sep-30 17:32N 40°38' W 074°10'4 3.7
2014-Sep-30 16:33N 40°39' W 074°05'1 1.2
2014-Sep-30 15:33N 40°40' W 074°05'1 0.7
2014-Sep-30 14:33N 40°40' W 074°04'4 3.7
2014-Sep-30 13:33N 40°40' W 074°09'0 0.0
2014-Sep-30 11:31N 40°40' W 074°09'1 1.2
2014-Sep-30 10:33N 40°41' W 074°09'2 2.3
2014-Sep-30 09:34N 40°39' W 074°08'4 3.8
2014-Sep-30 08:33N 40°38' W 074°03'5 5.2
2014-Sep-30 07:33N 40°38' W 074°10'0 0.0
2014-Sep-30 06:33N 40°38' W 074°10'0 0.0
2014-Sep-30 05:33N 40°38' W 074°10'0 0.0
2014-Sep-30 04:34N 40°38' W 074°10'2 2.4
2014-Sep-30 03:33N 40°41' W 074°09'0 0.3
2014-Sep-30 02:33N 40°41' W 074°09'0 0.0
2014-Sep-30 01:34N 40°41' W 074°09'0 0.0
2014-Sep-30 00:32N 40°41' W 074°09'0 0.0
2014-Sep-29 23:33N 40°41' W 074°09'3 2.9
2014-Sep-29 22:33N 40°39' W 074°06'2 1.7
2014-Sep-29 21:33N 40°39' W 074°04'4 3.7
2014-Sep-29 20:33N 40°38' W 074°09'1 0.6
2014-Sep-29 19:33N 40°39' W 074°10'0 0.1
2014-Sep-29 18:33N 40°38' W 074°10'0 0.0
2014-Sep-29 17:33N 40°38' W 074°10'0 0.0
2014-Sep-29 16:34N 40°38' W 074°10'3 2.6
2014-Sep-29 15:33N 40°41' W 074°09'1 1.2
2014-Sep-29 14:29N 40°40' W 074°09'0 0.0
2014-Sep-29 13:28N 40°40' W 074°09'0 0.0
2014-Sep-29 12:33N 40°40' W 074°09'0 0.0
2014-Sep-29 11:33N 40°40' W 074°09'1 1.1
2014-Sep-29 10:33N 40°41' W 074°09'1 0.8
2014-Sep-29 09:33N 40°40' W 074°09'4 3.6
2014-Sep-29 08:33N 40°39' W 074°04'1 1.1
2014-Sep-29 07:34N 40°38' W 074°04'4 3.9
2014-Sep-29 06:33N 40°39' W 074°09'0 0.1
2014-Sep-29 05:32N 40°39' W 074°09'1 0.9
2014-Sep-29 04:33N 40°38' W 074°10'4 3.7
2014-Sep-29 03:33N 40°39' W 074°05'4 3.7
2014-Sep-29 02:33N 40°38' W 074°10'0 0.0
2014-Sep-29 01:33N 40°38' W 074°10'0 0.0
2014-Sep-29 00:34N 40°38' W 074°10'0 0.0
2014-Sep-28 23:33N 40°38' W 074°10'1 1.5
2014-Sep-28 22:33N 40°40' W 074°09'0 0.1
2014-Sep-28 21:33N 40°40' W 074°09'3 2.7
2014-Sep-28 20:34N 40°39' W 074°05'4 3.6
2014-Sep-28 19:33N 40°38' W 074°10'0 0.0
2014-Sep-28 18:34N 40°38' W 074°10'0 0.0
2014-Sep-28 17:33N 40°38' W 074°10'0 0.0
2014-Sep-28 16:33N 40°38' W 074°10'0 0.0
2014-Sep-28 15:33N 40°38' W 074°10'4 4.1
2014-Sep-28 14:33N 40°40' W 074°05'2 1.8
2014-Sep-28 13:33N 40°39' W 074°03'2 1.8
2014-Sep-28 12:33N 40°37' W 074°03'1 0.6
2014-Sep-28 11:33N 40°38' W 074°03'3 3.0
2014-Sep-28 10:33N 40°40' W 074°05'2 1.7
2014-Sep-28 09:33N 40°39' W 074°03'6 6.2
2014-Sep-28 08:33N 40°38' W 074°12'1 1.3
2014-Sep-28 07:33N 40°38' W 074°10'0 0.0
2014-Sep-28 06:33N 40°38' W 074°10'0 0.0
2014-Sep-28 05:33N 40°38' W 074°10'0 0.0
2014-Sep-28 04:33N 40°38' W 074°10'0 0.0
2014-Sep-28 03:33N 40°38' W 074°10'0 0.0
2014-Sep-28 02:33N 40°38' W 074°10'0 0.0
2014-Sep-28 01:32N 40°38' W 074°10'1 1.3
2014-Sep-28 00:33N 40°40' W 074°09'1 1.3
2014-Sep-27 23:33N 40°38' W 074°10'0 0.0
2014-Sep-27 22:33N 40°38' W 074°10'0 0.0
2014-Sep-27 21:33N 40°38' W 074°10'0 0.0
2014-Sep-27 20:30N 40°38' W 074°10'0 0.0
2014-Sep-27 19:33N 40°38' W 074°10'0 0.0
2014-Sep-27 18:21N 40°38' W 074°10'0 0.0
2014-Sep-27 17:29N 40°38' W 074°10'4 1.9
2014-Sep-27 15:31N 40°39' W 074°05'4 3.9
2014-Sep-27 14:33N 40°38' W 074°10'5 3.6
2014-Sep-27 13:15N 40°34' W 074°13'1 0.6
2014-Sep-27 11:21N 40°35' W 074°12'4 4.3
2014-Sep-27 10:29N 40°38' W 074°10'2 2.5
2014-Sep-27 09:33N 40°41' W 074°08'1 1.1
2014-Sep-27 08:33N 40°39' W 074°09'1 1.3
2014-Sep-27 07:33N 40°38' W 074°10'0 0.0
2014-Sep-27 06:33N 40°38' W 074°10'0 0.0
2014-Sep-27 05:33N 40°38' W 074°10'0 0.0
2014-Sep-27 04:33N 40°38' W 074°10'0 0.0
2014-Sep-27 03:33N 40°38' W 074°10'0 0.0
2014-Sep-27 02:33N 40°38' W 074°10'0 0.0
2014-Sep-27 01:33N 40°38' W 074°10'0 0.0
2014-Sep-27 00:33N 40°38' W 074°10'0 0.0
2014-Sep-26 23:33N 40°38' W 074°10'0 0.0
2014-Sep-26 22:33N 40°38' W 074°10'2 2.2
2014-Sep-26 21:33N 40°40' W 074°08'4 3.8
2014-Sep-26 20:33N 40°39' W 074°04'4 4.4
2014-Sep-26 19:33N 40°38' W 074°10'0 0.1
2014-Sep-26 18:33N 40°38' W 074°10'0 0.0
2014-Sep-26 17:33N 40°38' W 074°10'1 1.3
2014-Sep-26 16:33N 40°38' W 074°12'0 0.0
2014-Sep-26 15:31N 40°38' W 074°12'0 0.0
2014-Sep-26 14:26N 40°38' W 074°12'0 0.0
2014-Sep-26 13:22N 40°38' W 074°12'1 1.6
2014-Sep-26 12:33N 40°38' W 074°10'0 0.0
2014-Sep-26 11:33N 40°38' W 074°10'4 4.1
2014-Sep-26 10:33N 40°39' W 074°05'6 5.6
2014-Sep-26 09:33N 40°42' W 073°59'2 2.0
2014-Sep-26 08:33N 40°41' W 074°01'8 7.6
2014-Sep-26 07:33N 40°38' W 074°10'0 0.0
2014-Sep-26 06:33N 40°38' W 074°10'0 0.0
2014-Sep-26 05:33N 40°38' W 074°10'0 0.0
2014-Sep-26 04:32N 40°38' W 074°10'0 0.0
2014-Sep-26 03:33N 40°38' W 074°10'0 0.0
2014-Sep-26 02:33N 40°38' W 074°10'0 0.0
2014-Sep-26 01:33N 40°38' W 074°10'0 0.0
2014-Sep-26 00:33N 40°38' W 074°10'0 0.0
2014-Sep-25 23:29N 40°38' W 074°10'0 0.0
2014-Sep-25 21:22N 40°38' W 074°10'1 0.5
2014-Sep-25 19:32N 40°39' W 074°09'1 0.8
2014-Sep-25 18:20N 40°38' W 074°10'0 0.0
2014-Sep-25 15:18N 40°38' W 074°10'1 1.0
2014-Sep-25 14:31N 40°39' W 074°09'1 1.0
2014-Sep-25 13:25N 40°39' W 074°07'2 2.2
2014-Sep-25 12:33N 40°38' W 074°10'0 0.0
2014-Sep-25 11:33N 40°38' W 074°10'1 1.2
2014-Sep-25 10:33N 40°38' W 074°11'2 1.6
2014-Sep-25 09:22N 40°39' W 074°09'5 5.7
2014-Sep-25 08:33N 40°37' W 074°03'5 5.1
2014-Sep-25 07:33N 40°38' W 074°10'0 0.2
2014-Sep-25 06:33N 40°38' W 074°10'2 2.0
2014-Sep-25 05:33N 40°39' W 074°07'3 2.6
2014-Sep-25 04:33N 40°41' W 074°09'2 2.1
2014-Sep-25 03:33N 40°39' W 074°09'1 1.0
2014-Sep-25 02:33N 40°40' W 074°09'2 1.6
2014-Sep-25 01:34N 40°38' W 074°10'0 0.0
2014-Sep-25 00:34N 40°38' W 074°10'0 0.0
2014-Sep-24 23:34N 40°38' W 074°10'0 0.0
2014-Sep-24 22:33N 40°38' W 074°10'0 0.0
2014-Sep-24 21:34N 40°38' W 074°10'0 0.0
2014-Sep-24 20:33N 40°38' W 074°10'0 0.0
2014-Sep-24 19:33N 40°38' W 074°10'0 0.0
2014-Sep-24 18:33N 40°38' W 074°10'0 0.0
2014-Sep-24 17:33N 40°38' W 074°10'5 3.2
2014-Sep-24 16:08N 40°40' W 074°04'5 8.7
2014-Sep-24 15:33N 40°42' W 073°58'0 0.1
2014-Sep-24 14:33N 40°42' W 073°58'3 3.0
2014-Sep-24 13:33N 40°41' W 074°02'2 2.2
2014-Sep-24 12:33N 40°40' W 074°04'0 0.3
2014-Sep-24 11:33N 40°40' W 074°04'0 0.0
2014-Sep-24 10:33N 40°40' W 074°04'1 0.5
2014-Sep-24 09:33N 40°40' W 074°05'3 3.4
2014-Sep-24 08:33N 40°37' W 074°03'1 1.1
2014-Sep-24 07:33N 40°38' W 074°04'5 4.5
2014-Sep-24 06:33N 40°41' W 074°09'2 2.5
2014-Sep-24 05:33N 40°38' W 074°10'0 0.0
2014-Sep-24 04:33N 40°38' W 074°10'0 0.0
2014-Sep-24 03:33N 40°38' W 074°10'0 0.0
2014-Sep-24 02:33N 40°38' W 074°10'0 0.0
2014-Sep-24 01:33N 40°38' W 074°10'2 1.7
2014-Sep-24 00:27N 40°38' W 074°12'4 3.8
2014-Sep-23 23:27N 40°39' W 074°07'0 0.1
2014-Sep-23 22:33N 40°39' W 074°07'2 1.8
2014-Sep-23 21:33N 40°38' W 074°10'0 0.0
2014-Sep-23 20:33N 40°38' W 074°10'2 2.5
2014-Sep-23 19:33N 40°41' W 074°09'0 0.3
2014-Sep-23 18:33N 40°41' W 074°08'3 2.8
2014-Sep-23 17:33N 40°38' W 074°10'0 0.0
2014-Sep-23 16:33N 40°38' W 074°10'0 0.0
2014-Sep-23 15:33N 40°38' W 074°10'0 0.0
2014-Sep-23 14:33N 40°38' W 074°10'0 0.0
2014-Sep-23 13:33N 40°38' W 074°10'0 0.0
2014-Sep-23 12:33N 40°38' W 074°10'0 0.0
2014-Sep-23 11:33N 40°38' W 074°10'0 0.0
2014-Sep-23 10:33N 40°38' W 074°10'2 2.1
2014-Sep-23 09:33N 40°40' W 074°08'0 0.1
2014-Sep-23 08:33N 40°40' W 074°08'2 2.0
2014-Sep-23 07:33N 40°38' W 074°10'0 0.0
2014-Sep-23 06:31N 40°38' W 074°10'3 2.5
2014-Sep-23 05:16N 40°39' W 074°06'3 3.8
2014-Sep-23 04:33N 40°37' W 074°03'5 5.5
2014-Sep-23 03:33N 40°38' W 074°10'0 0.0
2014-Sep-23 02:33N 40°38' W 074°10'0 0.0
2014-Sep-23 01:33N 40°38' W 074°10'0 0.0
2014-Sep-23 00:34N 40°38' W 074°10'0 0.0
2014-Sep-22 23:33N 40°38' W 074°10'0 0.0
2014-Sep-22 22:34N 40°38' W 074°10'0 0.0
2014-Sep-22 21:33N 40°38' W 074°10'4 2.0
2014-Sep-22 19:33N 40°39' W 074°05'4 4.0
2014-Sep-22 18:33N 40°38' W 074°10'3 1.2
2014-Sep-22 16:22N 40°41' W 074°09'1 1.3
2014-Sep-22 15:33N 40°40' W 074°08'4 4.1
2014-Sep-22 14:33N 40°38' W 074°03'5 4.9
2014-Sep-22 13:33N 40°38' W 074°10'0 0.0
2014-Sep-22 12:33N 40°38' W 074°10'1 0.9
2014-Sep-22 11:33N 40°39' W 074°09'1 0.9
2014-Sep-22 10:33N 40°40' W 074°09'  

Dump ship's entire track history